Time;durP1;ratioP1;P1;durP2;ratioP2;P2;SDS_P1;SDS_P2;PMS_P1;PMS_P2;Temp;Humidity;BMP_temperature;BMP_pressure;BME280_temperature;BME280_humidity;BME280_pressure;Samples;Min_cycle;Max_cycle;Signal;HPM_P1;HPM_P2
2021/07/31 00:01:08;;;;;;;4.35;1.40;;;21.30;87.20;;;;;;4933514;29;20102;-84
2021/07/31 00:03:38;;;;;;;5.65;1.35;;;21.30;87.20;;;;;;4933677;29;20024;-83
2021/07/31 00:06:04;;;;;;;6.43;1.20;;;21.30;87.20;;;;;;4933775;28;20035;-83
2021/07/31 00:08:30;;;;;;;5.70;1.40;;;21.30;87.20;;;;;;4933381;29;20024;-82
2021/07/31 00:10:56;;;;;;;4.00;1.10;;;21.30;87.20;;;;;;4934204;29;20039;-80
2021/07/31 00:13:23;;;;;;;3.53;1.10;;;21.30;87.30;;;;;;4933793;28;20235;-80
2021/07/31 00:15:49;;;;;;;4.85;1.25;;;21.30;87.30;;;;;;4931953;29;20617;-79
2021/07/31 00:18:14;;;;;;;5.30;1.45;;;21.30;87.30;;;;;;4933382;29;20134;-80
2021/07/31 00:20:41;;;;;;;4.50;1.20;;;21.30;87.30;;;;;;4932023;29;20020;-78
2021/07/31 00:23:07;;;;;;;5.85;1.40;;;21.30;87.40;;;;;;4933539;29;20051;-77
2021/07/31 00:25:33;;;;;;;3.92;1.27;;;21.30;87.40;;;;;;4933506;29;20085;-78
2021/07/31 00:27:59;;;;;;;4.55;1.50;;;21.30;87.40;;;;;;4933254;29;20554;-77
2021/07/31 00:30:26;;;;;;;3.95;1.50;;;21.30;87.50;;;;;;4933708;29;20036;-77
2021/07/31 00:32:52;;;;;;;3.38;1.50;;;21.20;87.40;;;;;;4931988;29;20206;-78
2021/07/31 00:35:18;;;;;;;2.97;1.20;;;21.20;87.40;;;;;;4932635;29;20028;-80
2021/07/31 00:37:44;;;;;;;4.53;1.58;;;21.20;87.50;;;;;;4932932;29;20030;-77
2021/07/31 00:40:10;;;;;;;3.45;1.45;;;21.30;87.60;;;;;;4932991;29;20107;-77
2021/07/31 00:42:43;;;;;;;2.58;1.17;;;21.30;87.60;;;;;;4933099;28;20090;-77
2021/07/31 00:45:10;;;;;;;4.15;1.00;;;21.30;87.60;;;;;;4933263;29;20087;-82
2021/07/31 00:47:37;;;;;;;4.70;1.77;;;21.20;87.60;;;;;;4931745;28;20392;-79
2021/07/31 00:50:03;;;;;;;6.65;1.60;;;21.20;87.60;;;;;;4932762;29;20040;-82
2021/07/31 00:52:29;;;;;;;4.85;1.58;;;21.20;87.60;;;;;;4932693;28;20582;-82
2021/07/31 00:54:58;;;;;;;3.50;1.40;;;21.20;87.70;;;;;;4933259;29;20094;-82
2021/07/31 00:57:24;;;;;;;4.00;1.63;;;21.20;87.70;;;;;;4932698;29;20034;-79
2021/07/31 00:59:50;;;;;;;4.20;1.25;;;21.20;87.80;;;;;;4932884;28;20040;-80
2021/07/31 01:02:16;;;;;;;4.03;1.40;;;21.20;87.70;;;;;;4932835;29;20418;-80
2021/07/31 01:04:41;;;;;;;4.72;1.38;;;21.20;87.80;;;;;;4932162;29;20035;-79
2021/07/31 01:07:07;;;;;;;6.10;1.48;;;21.20;87.80;;;;;;4932653;28;20115;-81
2021/07/31 01:09:33;;;;;;;3.88;1.17;;;21.20;87.80;;;;;;4930956;29;20093;-81
2021/07/31 01:11:58;;;;;;;3.97;1.30;;;21.20;87.90;;;;;;4931945;29;20114;-80
2021/07/31 01:14:24;;;;;;;3.80;1.52;;;21.20;87.90;;;;;;4932924;29;20036;-80
2021/07/31 01:16:50;;;;;;;4.13;1.02;;;21.20;88.00;;;;;;4932207;29;20575;-82
2021/07/31 01:19:15;;;;;;;4.95;1.30;;;21.20;88.00;;;;;;4932422;29;20040;-82
2021/07/31 01:21:45;;;;;;;5.05;1.38;;;21.20;88.00;;;;;;4932435;29;20157;-79
2021/07/31 01:24:12;;;;;;;5.35;1.88;;;21.20;88.10;;;;;;4932587;28;20499;-81
2021/07/31 01:26:48;;;;;;;4.82;1.88;;;21.20;88.10;;;;;;4932401;29;20031;-82
2021/07/31 01:29:17;;;;;;;;;;;21.20;88.10;;;;;;4932506;29;20107;-81
2021/07/31 01:31:44;;;;;;;4.40;1.67;;;21.20;88.20;;;;;;4932491;29;19914;-82
2021/07/31 01:34:10;;;;;;;4.72;1.35;;;21.20;88.20;;;;;;4931966;29;20024;-83
2021/07/31 01:36:36;;;;;;;4.65;1.70;;;21.10;88.20;;;;;;4931964;28;20031;-81
2021/07/31 01:39:02;;;;;;;2.53;1.10;;;21.20;88.30;;;;;;4932004;28;20040;-81
2021/07/31 01:41:29;;;;;;;4.63;1.58;;;21.10;88.20;;;;;;4932224;28;20043;-81
2021/07/31 01:43:55;;;;;;;5.50;1.60;;;21.10;88.20;;;;;;4931930;29;20103;-81
2021/07/31 01:46:22;;;;;;;4.40;1.35;;;21.20;88.40;;;;;;4931875;28;20434;-81
2021/07/31 01:48:48;;;;;;;4.22;1.10;;;21.20;88.40;;;;;;4931940;28;20032;-83
2021/07/31 01:51:14;;;;;;;4.07;1.10;;;21.10;88.40;;;;;;4932348;28;20020;-79
2021/07/31 01:53:39;;;;;;;3.55;1.30;;;21.10;88.40;;;;;;4932132;29;20510;-82
2021/07/31 01:56:05;;;;;;;4.28;1.42;;;21.10;88.50;;;;;;4932112;29;20043;-82
2021/07/31 01:58:32;;;;;;;4.22;1.40;;;21.10;88.50;;;;;;4931631;29;20429;-80
2021/07/31 02:00:58;;;;;;;5.25;1.30;;;21.10;88.50;;;;;;4932610;29;20074;-82
2021/07/31 02:03:24;;;;;;;4.82;1.35;;;21.10;88.60;;;;;;4931794;28;20105;-82
2021/07/31 02:05:50;;;;;;;4.18;1.30;;;21.10;88.60;;;;;;4931653;29;20035;-84
2021/07/31 02:08:16;;;;;;;5.30;1.40;;;21.10;88.60;;;;;;4932045;29;20024;-83
2021/07/31 02:10:43;;;;;;;5.22;1.27;;;21.10;88.60;;;;;;4931613;29;20392;-79
2021/07/31 02:13:08;;;;;;;5.22;1.77;;;21.10;88.60;;;;;;4930992;29;20032;-82
2021/07/31 02:15:38;;;;;;;3.90;1.30;;;21.10;88.60;;;;;;4930790;29;20030;-82
2021/07/31 02:18:04;;;;;;;4.80;1.30;;;21.10;88.70;;;;;;4931154;28;20447;-82
2021/07/31 02:20:29;;;;;;;5.90;1.80;;;21.10;88.70;;;;;;4931042;28;20028;-81
2021/07/31 02:22:55;;;;;;;4.45;1.17;;;21.10;88.80;;;;;;4931650;29;20498;-81
2021/07/31 02:25:21;;;;;;;3.45;1.17;;;21.10;88.80;;;;;;4931605;28;20031;-83
2021/07/31 02:27:46;;;;;;;5.30;1.60;;;21.10;88.80;;;;;;4929601;29;20038;-81
2021/07/31 02:30:12;;;;;;;3.28;1.30;;;21.00;88.70;;;;;;4931581;29;20077;-80
2021/07/31 02:32:38;;;;;;;3.25;1.00;;;21.10;88.90;;;;;;4931658;29;20031;-79
2021/07/31 02:35:04;;;;;;;5.32;1.15;;;21.00;88.80;;;;;;4931637;29;20035;-79
2021/07/31 02:37:29;;;;;;;4.32;1.30;;;21.10;88.90;;;;;;4931449;29;20023;-81
2021/07/31 02:39:55;;;;;;;2.75;1.30;;;21.10;88.90;;;;;;4931383;29;20097;-78
2021/07/31 02:42:21;;;;;;;5.38;1.35;;;21.00;88.90;;;;;;4931731;29;20031;-78
2021/07/31 02:44:46;;;;;;;2.80;1.20;;;21.00;88.90;;;;;;4930993;29;20091;-80
2021/07/31 02:47:12;;;;;;;4.70;1.17;;;21.00;89.00;;;;;;4931337;28;20036;-80
2021/07/31 02:49:38;;;;;;;4.45;1.35;;;21.00;89.00;;;;;;4931315;28;20047;-79
2021/07/31 02:52:03;;;;;;;3.05;1.20;;;21.00;89.00;;;;;;4930416;29;20028;-79
2021/07/31 02:54:29;;;;;;;3.10;1.30;;;21.00;89.10;;;;;;4931101;29;20054;-83
2021/07/31 02:56:55;;;;;;;4.03;1.38;;;21.00;89.10;;;;;;4931527;28;20090;-81
2021/07/31 02:59:20;;;;;;;5.05;1.35;;;21.00;89.10;;;;;;4931035;29;20038;-80
2021/07/31 03:01:46;;;;;;;4.45;1.15;;;21.00;89.10;;;;;;4929493;29;20388;-80
2021/07/31 03:04:11;;;;;;;4.20;1.33;;;21.00;89.80;;;;;;4931223;28;20032;-81
2021/07/31 03:06:37;;;;;;;4.32;1.20;;;21.00;89.20;;;;;;4930662;28;20035;-79
2021/07/31 03:09:03;;;;;;;5.47;1.65;;;21.00;89.20;;;;;;4930874;28;20063;-81
2021/07/31 03:11:28;;;;;;;3.55;1.05;;;21.00;89.20;;;;;;4930854;29;20412;-80
2021/07/31 03:13:54;;;;;;;3.30;1.15;;;21.00;89.30;;;;;;4930120;29;20032;-83
2021/07/31 03:16:19;;;;;;;4.07;1.60;;;21.00;89.20;;;;;;4930966;29;20031;-78
2021/07/31 03:18:45;;;;;;;3.85;1.20;;;21.00;89.30;;;;;;4931026;29;20036;-80
2021/07/31 03:21:11;;;;;;;3.92;1.27;;;21.00;89.30;;;;;;4930996;29;20502;-80
2021/07/31 03:23:37;;;;;;;4.07;1.48;;;21.00;89.40;;;;;;4930706;28;20040;-78
2021/07/31 03:26:03;;;;;;;3.72;1.60;;;21.00;89.40;;;;;;4930590;29;20028;-79
2021/07/31 03:28:30;;;;;;;4.90;1.25;;;21.00;89.40;;;;;;4930632;29;20042;-83
2021/07/31 03:30:56;;;;;;;3.90;1.52;;;21.00;89.40;;;;;;4931078;29;20095;-78
2021/07/31 03:33:22;;;;;;;3.65;1.27;;;21.00;90.10;;;;;;4932685;29;20438;-78
2021/07/31 03:35:48;;;;;;;3.83;1.60;;;21.00;89.50;;;;;;4933729;28;20031;-78
2021/07/31 03:38:13;;;;;;;4.82;1.33;;;21.00;89.50;;;;;;4933806;29;20062;-77
2021/07/31 03:40:39;;;;;;;2.97;1.05;;;21.00;89.60;;;;;;4933066;29;20027;-78
2021/07/31 03:43:05;;;;;;;7.63;1.58;;;21.00;89.60;;;;;;4933921;28;20053;-77
2021/07/31 03:45:31;;;;;;;3.70;1.35;;;21.00;89.60;;;;;;4934117;29;20098;-78
2021/07/31 03:47:56;;;;;;;3.80;1.30;;;21.00;89.70;;;;;;4934064;29;20454;-78
2021/07/31 03:50:22;;;;;;;5.00;1.38;;;20.90;89.70;;;;;;4934855;28;20251;-80
2021/07/31 03:52:48;;;;;;;5.55;1.50;;;21.00;89.70;;;;;;4934077;29;20526;-78
2021/07/31 03:55:14;;;;;;;5.07;1.60;;;21.00;89.80;;;;;;4934210;29;20086;-77
2021/07/31 03:57:40;;;;;;;4.85;1.30;;;20.90;89.80;;;;;;4933861;28;20028;-79
2021/07/31 04:00:06;;;;;;;4.00;1.55;;;21.00;89.80;;;;;;4933398;28;20040;-77
2021/07/31 04:02:33;;;;;;;5.15;1.45;;;21.00;89.80;;;;;;4933269;28;20027;-80
2021/07/31 04:04:58;;;;;;;2.85;1.50;;;21.00;89.80;;;;;;4933569;29;20032;-83
2021/07/31 04:07:25;;;;;;;3.53;1.20;;;20.90;89.80;;;;;;4934303;28;20111;-80
2021/07/31 04:09:51;;;;;;;4.07;1.33;;;20.90;89.80;;;;;;4932655;29;20089;-79
2021/07/31 04:12:16;;;;;;;3.15;1.48;;;20.90;89.90;;;;;;4932486;28;20495;-80
2021/07/31 04:14:42;;;;;;;2.67;1.10;;;20.90;89.90;;;;;;4933013;28;20030;-79
2021/07/31 04:17:08;;;;;;;5.35;1.73;;;20.90;90.00;;;;;;4933313;29;20111;-80
2021/07/31 04:19:33;;;;;;;2.80;1.20;;;20.90;90.00;;;;;;4933569;29;20395;-82
2021/07/31 04:21:59;;;;;;;3.85;1.15;;;20.90;90.00;;;;;;4933587;29;20395;-80
2021/07/31 04:24:26;;;;;;;4.85;1.35;;;20.90;90.00;;;;;;4933650;29;20027;-79
2021/07/31 04:26:53;;;;;;;5.20;1.98;;;20.90;90.00;;;;;;4933168;28;20561;-82
2021/07/31 04:29:19;;;;;;;4.13;1.30;;;20.90;90.00;;;;;;4933613;29;20358;-81
2021/07/31 04:31:46;;;;;;;4.10;1.40;;;20.90;90.00;;;;;;4933296;28;20016;-80
2021/07/31 04:34:12;;;;;;;3.65;1.30;;;20.90;90.10;;;;;;4933606;29;20032;-81
2021/07/31 04:36:38;;;;;;;5.38;1.60;;;20.90;90.10;;;;;;4933002;29;20047;-82
2021/07/31 04:39:05;;;;;;;4.60;1.38;;;20.90;90.10;;;;;;4932580;29;20090;-80
2021/07/31 04:41:31;;;;;;;4.25;1.35;;;20.90;90.10;;;;;;4932822;29;20032;-82
2021/07/31 04:43:56;;;;;;;5.60;1.65;;;20.90;90.10;;;;;;4932589;28;20074;-82
2021/07/31 04:46:22;;;;;;;4.00;1.40;;;20.90;90.10;;;;;;4933104;28;20473;-79
2021/07/31 04:48:47;;;;;;;3.53;1.42;;;20.90;90.20;;;;;;4933088;28;20039;-78
2021/07/31 04:51:13;;;;;;;3.90;1.73;;;20.90;90.20;;;;;;4933152;28;20046;-79
2021/07/31 04:53:39;;;;;;;8.13;1.67;;;20.90;90.20;;;;;;4932613;29;20032;-80
2021/07/31 04:56:05;;;;;;;3.90;1.40;;;20.90;90.20;;;;;;4932875;29;20394;-81
2021/07/31 04:58:31;;;;;;;5.65;1.83;;;20.90;90.20;;;;;;4932617;29;20039;-77
2021/07/31 05:01:00;;;;;;;5.65;1.58;;;20.90;90.20;;;;;;4932450;29;20106;-79
2021/07/31 05:03:29;;;;;;;3.08;1.05;;;20.90;90.20;;;;;;4933425;29;20054;-79
2021/07/31 05:05:55;;;;;;;5.50;1.88;;;20.90;90.20;;;;;;4928714;29;20031;-78
2021/07/31 05:08:21;;;;;;;5.53;1.52;;;20.90;90.20;;;;;;4913696;28;20040;-78
2021/07/31 05:10:48;;;;;;;5.38;1.30;;;20.90;90.20;;;;;;4913912;29;20050;-80
2021/07/31 05:13:14;;;;;;;6.32;1.45;;;20.90;90.20;;;;;;4916268;28;20029;-78
2021/07/31 05:15:43;;;;;;;4.05;1.52;;;20.90;90.30;;;;;;4932542;28;20077;-78
2021/07/31 05:18:10;;;;;;;4.90;1.95;;;20.90;90.30;;;;;;4932727;29;20035;-77
2021/07/31 05:20:40;;;;;;;6.10;1.30;;;20.90;90.30;;;;;;4932488;28;20027;-77
2021/07/31 05:23:06;;;;;;;4.72;1.33;;;20.90;90.30;;;;;;4932622;29;20020;-77
2021/07/31 05:25:32;;;;;;;8.70;1.55;;;20.90;90.30;;;;;;4931440;29;20161;-77
2021/07/31 05:27:57;;;;;;;3.97;1.20;;;20.90;90.40;;;;;;4933035;29;20408;-77
2021/07/31 05:30:23;;;;;;;5.05;1.38;;;20.90;90.70;;;;;;4932669;28;20047;-78
2021/07/31 05:32:49;;;;;;;3.25;1.20;;;20.90;90.40;;;;;;4932118;28;20028;-78
2021/07/31 05:35:15;;;;;;;5.40;2.25;;;20.80;90.40;;;;;;4932510;28;20035;-78
2021/07/31 05:37:40;;;;;;;4.93;1.75;;;20.80;90.30;;;;;;4931843;29;20369;-79
2021/07/31 05:40:07;;;;;;;3.35;1.30;;;20.90;90.40;;;;;;4932784;29;20070;-78
2021/07/31 05:42:32;;;;;;;4.15;1.38;;;20.90;90.40;;;;;;4932404;28;20043;-78
2021/07/31 05:45:00;;;;;;;2.63;1.20;;;20.90;90.40;;;;;;4931452;29;20039;-78
2021/07/31 05:47:27;;;;;;;6.88;1.70;;;20.80;90.40;;;;;;4932420;29;20426;-78
2021/07/31 05:49:53;;;;;;;2.97;1.20;;;20.90;90.40;;;;;;4931676;28;20044;-78
2021/07/31 05:52:24;;;;;;;3.13;1.30;;;20.90;90.50;;;;;;4932383;29;20042;-79
2021/07/31 05:54:50;;;;;;;4.80;1.27;;;20.90;90.50;;;;;;4931743;29;20130;-79
2021/07/31 05:57:15;;;;;;;3.35;1.23;;;20.80;90.40;;;;;;4930824;29;20063;-78
2021/07/31 05:59:42;;;;;;;3.85;1.50;;;20.90;90.50;;;;;;4932088;29;20055;-78
2021/07/31 06:02:09;;;;;;;3.92;1.13;;;20.80;90.50;;;;;;4931764;29;20066;-77
2021/07/31 06:04:36;;;;;;;6.60;1.73;;;20.80;90.50;;;;;;4931750;28;20043;-77
2021/07/31 06:07:01;;;;;;;3.90;1.25;;;20.80;90.50;;;;;;4931578;29;20398;-77
2021/07/31 06:09:27;;;;;;;5.47;1.60;;;20.80;90.50;;;;;;4931683;28;20035;-76
2021/07/31 06:11:53;;;;;;;3.22;1.10;;;20.80;90.50;;;;;;4946382;29;20122;-77
2021/07/31 06:14:18;;;;;;;3.85;1.23;;;20.80;90.50;;;;;;4932025;29;20093;-77
2021/07/31 06:16:44;;;;;;;2.95;1.23;;;20.80;90.90;;;;;;4931243;29;20032;-76
2021/07/31 06:19:10;;;;;;;3.92;1.50;;;20.80;90.60;;;;;;4931433;29;20070;-77
2021/07/31 06:21:36;;;;;;;4.20;1.45;;;20.80;90.60;;;;;;4931695;29;20086;-77
2021/07/31 06:24:02;;;;;;;4.07;1.45;;;20.80;90.60;;;;;;4931912;29;20032;-78
2021/07/31 06:26:28;;;;;;;3.90;1.10;;;20.80;90.60;;;;;;4931574;28;20023;-77
2021/07/31 06:28:54;;;;;;;4.30;1.40;;;20.80;90.60;;;;;;4932235;28;20434;-77
2021/07/31 06:31:19;;;;;;;3.05;1.05;;;20.80;90.70;;;;;;4931699;28;20032;-77
2021/07/31 06:33:45;;;;;;;3.47;1.50;;;20.80;90.70;;;;;;4931026;29;20146;-78
2021/07/31 06:36:11;;;;;;;3.85;1.50;;;20.80;90.70;;;;;;4931411;29;20157;-77
2021/07/31 06:38:36;;;;;;;4.10;1.17;;;20.80;90.70;;;;;;4930215;29;20500;-77
2021/07/31 06:41:02;;;;;;;4.35;1.40;;;20.80;90.70;;;;;;4931450;29;20020;-77
2021/07/31 06:43:28;;;;;;;4.85;1.27;;;20.80;90.80;;;;;;4931453;29;20046;-76
2021/07/31 06:45:53;;;;;;;4.35;1.70;;;20.80;90.80;;;;;;4930995;28;20023;-79
2021/07/31 06:48:19;;;;;;;4.10;1.35;;;20.80;90.80;;;;;;4931525;28;20450;-75
2021/07/31 06:50:44;;;;;;;3.63;1.20;;;20.80;90.70;;;;;;4931039;29;20063;-75
2021/07/31 06:53:10;;;;;;;2.70;1.25;;;20.80;90.80;;;;;;4931600;29;20031;-75
2021/07/31 06:55:36;;;;;;;3.50;1.42;;;20.80;90.80;;;;;;4928832;28;20070;-74
2021/07/31 06:58:01;;;;;;;3.53;1.17;;;20.80;90.80;;;;;;4912562;29;20020;-78
2021/07/31 07:00:27;;;;;;;2.45;1.10;;;20.80;90.80;;;;;;4914451;29;20102;-81
2021/07/31 07:02:52;;;;;;;4.07;1.20;;;20.80;90.90;;;;;;4926939;29;20040;-78
2021/07/31 07:05:18;;;;;;;2.90;1.30;;;20.80;90.90;;;;;;4931133;29;20514;-77
2021/07/31 07:07:44;;;;;;;3.60;1.10;;;20.80;90.90;;;;;;4928758;29;20039;-80
2021/07/31 07:10:10;;;;;;;3.38;1.45;;;20.80;90.90;;;;;;4930544;29;20027;-77
2021/07/31 07:12:35;;;;;;;3.10;1.33;;;20.80;90.90;;;;;;4930545;29;20035;-81
2021/07/31 07:15:01;;;;;;;5.03;1.40;;;20.90;90.90;;;;;;4930481;28;20050;-79
2021/07/31 07:17:27;;;;;;;3.63;1.20;;;20.90;91.00;;;;;;4931280;28;20407;-80
2021/07/31 07:19:52;;;;;;;4.18;1.30;;;20.80;91.00;;;;;;4930220;29;20070;-79
2021/07/31 07:22:18;;;;;;;3.33;1.40;;;20.90;91.00;;;;;;4931168;29;20359;-76
2021/07/31 07:24:43;;;;;;;7.18;1.35;;;20.90;91.00;;;;;;4930771;28;20071;-75
2021/07/31 07:27:09;;;;;;;7.03;3.60;;;20.90;91.10;;;;;;4931312;29;20032;-79
2021/07/31 07:29:35;;;;;;;6.28;2.35;;;20.90;91.20;;;;;;4930631;29;20397;-77
2021/07/31 07:32:00;;;;;;;5.70;2.00;;;20.90;91.20;;;;;;4931048;28;20051;-75
2021/07/31 07:34:26;;;;;;;5.82;2.75;;;21.00;91.30;;;;;;4930927;29;20033;-78
2021/07/31 07:36:51;;;;;;;9.07;3.60;;;21.00;91.40;;;;;;4930759;29;20107;-76
2021/07/31 07:39:17;;;;;;;7.78;3.35;;;21.00;91.50;;;;;;4930746;29;20085;-80
2021/07/31 07:41:43;;;;;;;9.98;3.88;;;21.00;91.70;;;;;;4931865;28;20054;-77
2021/07/31 07:44:08;;;;;;;6.35;2.60;;;21.10;91.80;;;;;;4931012;29;20039;-79
2021/07/31 07:46:34;;;;;;;9.15;3.35;;;21.10;92.00;;;;;;4930670;29;20074;-76
2021/07/31 07:49:00;;;;;;;10.68;3.03;;;21.10;92.20;;;;;;4930780;28;20042;-77
2021/07/31 07:51:26;;;;;;;7.45;3.30;;;21.10;92.20;;;;;;4929723;29;20035;-75
2021/07/31 07:53:52;;;;;;;11.52;2.97;;;21.10;92.30;;;;;;4930658;29;20027;-78
2021/07/31 07:56:17;;;;;;;6.47;2.75;;;21.20;92.30;;;;;;4930857;29;20032;-77
2021/07/31 07:58:43;;;;;;;6.38;2.40;;;21.20;92.40;;;;;;4930082;28;20035;-81
2021/07/31 08:01:10;;;;;;;8.00;3.15;;;21.10;92.30;;;;;;4929045;28;20051;-80
2021/07/31 08:03:36;;;;;;;9.18;2.60;;;21.20;92.30;;;;;;4930321;28;20024;-81
2021/07/31 08:06:01;;;;;;;8.43;2.40;;;21.20;92.30;;;;;;4930437;29;20484;-83
2021/07/31 08:08:28;;;;;;;7.00;2.45;;;21.20;92.40;;;;;;4926195;29;20115;-82
2021/07/31 08:10:54;;;;;;;7.05;2.67;;;21.20;92.40;;;;;;4911767;28;20024;-79
2021/07/31 08:13:19;;;;;;;8.95;2.60;;;21.20;92.50;;;;;;4911709;29;20167;-81
2021/07/31 08:15:45;;;;;;;8.07;2.65;;;21.20;92.50;;;;;;4927391;29;20380;-82
2021/07/31 08:18:11;;;;;;;8.23;2.63;;;21.20;92.80;;;;;;4930438;28;20740;-80
2021/07/31 08:20:37;;;;;;;8.30;2.40;;;21.30;92.70;;;;;;4932184;29;20032;-80
2021/07/31 08:23:03;;;;;;;9.10;2.78;;;21.30;92.80;;;;;;4933253;29;20032;-79
2021/07/31 08:25:29;;;;;;;6.78;2.20;;;21.30;92.90;;;;;;4932571;29;20031;-81
2021/07/31 08:27:55;;;;;;;6.53;2.42;;;21.30;92.90;;;;;;4933859;29;20034;-84
2021/07/31 08:30:21;;;;;;;5.65;2.13;;;21.30;92.80;;;;;;4933704;29;20131;-80
2021/07/31 08:32:47;;;;;;;14.48;2.67;;;21.30;92.80;;;;;;4932299;29;20446;-84
2021/07/31 08:35:12;;;;;;;6.50;2.42;;;21.30;92.80;;;;;;4933517;29;20055;-84
2021/07/31 08:37:39;;;;;;;8.35;2.45;;;21.40;92.70;;;;;;4933255;29;20024;-84
2021/07/31 08:40:10;;;;;;;4.45;2.28;;;21.40;92.40;;;;;;4932932;29;20039;-79
2021/07/31 08:42:39;;;;;;;4.97;2.22;;;21.40;92.40;;;;;;4933054;28;20103;-81
2021/07/31 08:45:06;;;;;;;10.25;2.22;;;21.40;92.40;;;;;;4933091;28;20028;-81
2021/07/31 08:47:32;;;;;;;7.45;2.78;;;21.30;92.30;;;;;;4933187;28;20020;-80
2021/07/31 08:49:59;;;;;;;5.85;1.60;;;21.40;92.10;;;;;;4933361;28;20110;-81
2021/07/31 08:52:27;;;;;;;9.52;2.33;;;21.40;92.20;;;;;;4933626;29;20064;-84
2021/07/31 08:54:53;;;;;;;5.95;2.08;;;21.40;92.00;;;;;;4931588;29;20047;-81
2021/07/31 08:57:19;;;;;;;7.00;1.95;;;21.40;92.00;;;;;;4931820;29;20492;-84
2021/07/31 08:59:46;;;;;;;6.03;2.33;;;21.40;91.80;;;;;;4932582;28;20531;-82
2021/07/31 09:02:12;;;;;;;5.78;2.05;;;21.40;91.90;;;;;;4932672;29;20032;-83
2021/07/31 09:04:43;;;;;;;13.02;3.80;;;21.40;91.90;;;;;;4932993;29;20030;-78
2021/07/31 09:07:13;;;;;;;7.72;2.45;;;21.40;91.90;;;;;;4931882;29;20534;-84
2021/07/31 09:09:39;;;;;;;6.15;2.38;;;21.40;91.80;;;;;;4931727;29;20028;-84
2021/07/31 09:12:07;;;;;;;9.30;2.13;;;21.40;92.00;;;;;;4933055;29;20518;-82
2021/07/31 09:14:35;;;;;;;6.57;2.00;;;21.40;91.80;;;;;;4932278;29;20059;-80
2021/07/31 09:17:01;;;;;;;9.73;2.22;;;21.40;91.60;;;;;;4931608;28;20032;-83
2021/07/31 09:19:28;;;;;;;4.65;2.35;;;21.40;91.60;;;;;;4932705;29;20031;-84
2021/07/31 09:22:07;;;;;;;6.35;2.05;;;21.40;91.70;;;;;;4932927;29;20070;-78
2021/07/31 09:24:34;;;;;;;9.88;4.00;;;21.40;91.60;;;;;;4931174;29;20438;-80
2021/07/31 09:27:00;;;;;;;7.05;2.72;;;21.40;91.70;;;;;;4935847;29;20024;-80
2021/07/31 09:29:26;;;;;;;9.93;2.80;;;21.40;91.80;;;;;;4932986;29;20027;-86
2021/07/31 09:31:54;;;;;;;10.90;4.43;;;21.50;91.90;;;;;;4932079;29;20031;-76
2021/07/31 09:34:33;;;;;;;9.23;3.17;;;21.50;91.90;;;;;;4932544;28;20518;-82
2021/07/31 09:37:25;;;;;;;11.13;3.85;;;21.50;91.80;;;;;;4931397;29;20055;-79
2021/07/31 09:39:56;;;;;;;7.85;3.95;;;21.60;91.90;;;;;;4932458;29;20127;-79
2021/07/31 09:42:35;;;;;;;9.88;3.78;;;21.60;91.90;;;;;;4941007;29;20023;-76
2021/07/31 09:45:05;;;;;;;7.03;3.60;;;21.60;92.00;;;;;;4932078;29;20036;-75
2021/07/31 09:47:31;;;;;;;8.25;2.63;;;21.60;92.00;;;;;;4932231;29;20023;-77
2021/07/31 09:50:00;;;;;;;6.65;2.88;;;21.60;92.10;;;;;;4935644;28;20036;-74
2021/07/31 09:52:27;;;;;;;6.63;2.75;;;21.60;92.00;;;;;;4928250;28;20020;-73
2021/07/31 09:54:56;;;;;;;8.00;3.00;;;21.60;92.00;;;;;;4932314;28;20448;-73
2021/07/31 09:57:26;;;;;;;6.75;3.13;;;21.60;92.00;;;;;;4940526;29;20019;-79
2021/07/31 09:59:55;;;;;;;7.13;2.25;;;21.70;92.20;;;;;;4932550;29;20031;-85
2021/07/31 10:02:21;;;;;;;6.32;2.50;;;21.70;91.70;;;;;;4931986;28;20054;-85
2021/07/31 10:04:48;;;;;;;5.63;2.08;;;21.70;91.60;;;;;;4932226;29;20024;-83
2021/07/31 10:07:15;;;;;;;5.50;2.10;;;21.70;91.50;;;;;;4935340;29;20063;-78
2021/07/31 10:09:45;;;;;;;8.63;2.30;;;21.70;91.40;;;;;;4931498;28;20395;-81
2021/07/31 10:12:14;;;;;;;3.30;1.90;;;21.70;91.30;;;;;;4932676;28;20035;-78
2021/07/31 10:14:40;;;;;;;10.25;2.25;;;21.70;90.80;;;;;;4933304;29;20068;-84
2021/07/31 10:17:06;;;;;;;4.25;2.00;;;21.80;90.50;;;;;;4942858;28;20031;-83
2021/07/31 10:19:46;;;;;;;5.22;1.83;;;21.70;90.20;;;;;;4932156;29;20079;-80
2021/07/31 10:22:13;;;;;;;8.05;2.13;;;21.70;90.10;;;;;;4927178;28;20110;-80
2021/07/31 10:24:54;;;;;;;5.13;2.05;;;21.70;90.00;;;;;;4931737;29;20031;-83
2021/07/31 10:27:24;;;;;;;7.43;1.70;;;21.70;90.00;;;;;;4927428;29;20381;-78
2021/07/31 10:29:51;;;;;;;5.88;2.30;;;21.70;90.10;;;;;;4920191;29;20484;-80
2021/07/31 10:32:20;;;;;;;5.75;1.80;;;21.80;90.30;;;;;;4940018;29;20102;-83
2021/07/31 10:34:58;;;;;;;7.22;1.98;;;21.80;90.60;;;;;;4949150;29;20581;-79
2021/07/31 10:37:34;;;;;;;4.82;1.70;;;21.80;90.70;;;;;;4949469;29;20463;-82
2021/07/31 10:40:06;;;;;;;5.07;1.60;;;21.90;90.80;;;;;;4949347;29;20043;-79
2021/07/31 10:43:04;;;;;;;5.28;1.70;;;21.90;90.80;;;;;;4941990;29;20066;-84
2021/07/31 10:45:31;;;;;;;6.55;1.70;;;21.80;90.90;;;;;;4898975;28;20126;-85
2021/07/31 10:48:21;;;;;;;5.25;1.80;;;21.80;91.10;;;;;;4930730;28;20403;-79
2021/07/31 10:50:47;;;;;;;7.00;2.03;;;21.90;91.10;;;;;;4929816;29;20036;-83
2021/07/31 10:53:14;;;;;;;5.22;1.50;;;21.90;91.10;;;;;;4931353;28;20399;-84
2021/07/31 10:55:42;;;;;;;6.28;1.90;;;22.00;90.90;;;;;;4931479;29;20063;-77
2021/07/31 10:58:12;;;;;;;4.50;1.63;;;22.00;90.90;;;;;;4930201;28;20454;-85
2021/07/31 11:00:42;;;;;;;5.60;2.03;;;22.00;91.00;;;;;;4930876;28;20101;-85
2021/07/31 11:03:27;;;;;;;4.85;1.65;;;22.00;91.20;;;;;;4931553;29;20032;-80
2021/07/31 11:05:55;;;;;;;5.05;1.65;;;22.00;91.80;;;;;;4931375;29;20043;-79
2021/07/31 11:08:30;;;;;;;6.63;1.88;;;22.10;92.20;;;;;;4930835;29;20102;-81
2021/07/31 11:11:15;;;;;;;5.93;2.20;;;22.10;92.40;;;;;;4930414;28;20114;-81
2021/07/31 11:13:41;;;;;;;4.78;1.70;;;22.10;92.20;;;;;;4930829;29;20067;-82
2021/07/31 11:16:17;;;;;;;8.07;1.73;;;22.20;92.20;;;;;;4931256;29;20545;-78
2021/07/31 11:18:47;;;;;;;5.82;2.00;;;22.20;92.30;;;;;;4931082;29;20070;-84
2021/07/31 11:21:21;;;;;;;7.45;1.85;;;22.20;92.40;;;;;;4926910;28;20431;-82
2021/07/31 11:23:47;;;;;;;4.57;1.65;;;22.20;92.10;;;;;;4926348;28;20492;-82
2021/07/31 11:26:29;;;;;;;9.00;1.60;;;22.20;92.10;;;;;;4927157;29;20126;-82
2021/07/31 11:28:55;;;;;;;6.53;1.75;;;22.20;91.80;;;;;;4986967;28;20038;-82
2021/07/31 11:31:21;;;;;;;6.70;1.88;;;22.30;91.70;;;;;;4949255;29;20019;-83
2021/07/31 11:33:58;;;;;;;4.85;1.60;;;22.30;91.60;;;;;;4949006;29;20113;-82
2021/07/31 11:36:23;;;;;;;9.15;2.25;;;22.30;91.60;;;;;;4928081;29;20032;-88
2021/07/31 11:38:52;;;;;;;8.32;2.00;;;22.30;91.50;;;;;;4934833;29;20034;-82
2021/07/31 11:41:19;;;;;;;9.15;1.70;;;22.30;91.50;;;;;;4931609;29;20372;-81
2021/07/31 11:43:51;;;;;;;2.53;1.38;;;22.30;91.40;;;;;;4929018;29;20027;-82
2021/07/31 11:46:39;;;;;;;4.10;1.92;;;22.40;91.30;;;;;;4927890;29;20027;-84
2021/07/31 11:49:23;;;;;;;5.60;1.77;;;22.40;91.20;;;;;;4928366;28;20024;-80
2021/07/31 11:51:49;;;;;;;9.43;1.75;;;22.50;91.30;;;;;;4933957;29;20032;-83
2021/07/31 11:54:15;;;;;;;7.13;1.50;;;22.50;91.20;;;;;;4930227;28;20028;-81
2021/07/31 11:56:43;;;;;;;5.35;1.55;;;22.50;91.00;;;;;;4931620;28;20085;-80
2021/07/31 11:59:09;;;;;;;4.70;1.48;;;22.50;90.90;;;;;;4932018;29;20074;-83
2021/07/31 12:01:37;;;;;;;4.65;1.70;;;22.50;90.90;;;;;;4931725;29;20134;-82
2021/07/31 12:04:03;;;;;;;8.57;1.80;;;22.50;90.80;;;;;;4931984;29;20015;-83
2021/07/31 12:06:34;;;;;;;6.25;1.65;;;22.60;90.80;;;;;;4931696;28;20020;-85
2021/07/31 12:09:03;;;;;;;5.95;2.13;;;22.60;90.70;;;;;;4932234;29;20053;-82
2021/07/31 12:11:36;;;;;;;6.22;1.80;;;22.70;90.70;;;;;;4929362;29;20487;-84
2021/07/31 12:14:33;;;;;;;3.72;1.85;;;22.70;90.60;;;;;;4933148;28;20031;-81
2021/07/31 12:17:23;;;;;;;7.78;1.58;;;22.80;90.60;;;;;;4960792;28;20084;-85
2021/07/31 12:19:49;;;;;;;4.25;1.45;;;22.80;88.90;;;;;;4951922;28;20075;-80
2021/07/31 12:22:18;;;;;;;4.22;1.15;;;22.80;88.70;;;;;;4952132;29;20457;-82
2021/07/31 12:24:44;;;;;;;6.82;1.75;;;22.90;89.20;;;;;;4952086;29;20027;-78
2021/07/31 12:27:10;;;;;;;6.45;1.50;;;22.90;88.90;;;;;;4952195;28;20027;-81
2021/07/31 12:29:37;;;;;;;4.78;1.40;;;22.90;88.60;;;;;;4947590;29;20039;-78
2021/07/31 12:32:27;;;;;;;5.07;1.80;;;22.90;88.60;;;;;;4931412;29;20466;-77
2021/07/31 12:34:54;;;;;;;5.45;1.30;;;22.90;88.70;;;;;;4932680;29;20020;-77
2021/07/31 12:37:22;;;;;;;6.00;1.60;;;23.00;89.10;;;;;;4931349;29;20031;-78
2021/07/31 12:39:50;;;;;;;7.38;1.58;;;23.00;88.90;;;;;;4936211;28;20067;-80
2021/07/31 12:42:16;;;;;;;6.47;1.63;;;23.00;88.90;;;;;;4930019;29;20038;-77
2021/07/31 12:44:42;;;;;;;5.20;1.40;;;23.00;88.70;;;;;;4948370;29;20475;-77
2021/07/31 12:47:10;;;;;;;3.83;1.40;;;23.00;88.90;;;;;;4940219;29;20472;-80
2021/07/31 12:49:36;;;;;;;4.35;1.55;;;23.00;88.90;;;;;;4941240;28;20050;-80